createdAt,value
2023-03-06T00:03:02.365Z,2.50
2023-03-06T00:07:04.124Z,2.65
2023-03-06T00:11:05.835Z,2.40
2023-03-06T00:15:08.324Z,2.28
2023-03-06T00:19:10.161Z,2.47
2023-03-06T00:23:13.991Z,2.60
2023-03-06T00:27:15.746Z,2.72
2023-03-06T00:31:17.524Z,3.20
2023-03-06T00:35:19.490Z,2.53
2023-03-06T00:39:22.129Z,2.25
2023-03-06T00:43:23.850Z,2.08
2023-03-06T00:47:25.777Z,2.15
2023-03-06T00:51:27.749Z,2.50
2023-03-06T00:55:30.938Z,2.35
2023-03-06T00:59:32.742Z,3.00
2023-03-06T01:03:34.542Z,2.22
2023-03-06T01:07:37.074Z,1.98
2023-03-06T01:11:38.881Z,2.50
2023-03-06T01:15:40.826Z,3.17
2023-03-06T01:19:42.642Z,3.25
2023-03-06T01:23:47.641Z,3.10
2023-03-06T01:27:49.506Z,2.80
2023-03-06T01:31:51.250Z,2.47
2023-03-06T01:35:53.718Z,2.58
2023-03-06T01:39:55.970Z,2.80
2023-03-06T01:43:57.830Z,2.72
2023-03-06T01:47:59.595Z,2.00
2023-03-06T01:52:10.652Z,2.22
2023-03-06T01:56:14.518Z,2.40
2023-03-06T02:00:20.397Z,2.50
2023-03-06T02:04:23.186Z,2.55
2023-03-06T02:08:26.639Z,2.85
2023-03-06T02:12:28.662Z,2.50
2023-03-06T02:16:33.331Z,2.05
2023-03-06T02:20:44.469Z,2.75
2023-03-06T02:25:01.458Z,2.53
2023-03-06T02:29:04.286Z,4.00
2023-03-06T02:33:06.307Z,4.40
2023-03-06T02:37:10.284Z,4.03
2023-03-06T02:41:12.775Z,3.72
2023-03-06T02:45:17.522Z,3.83
2023-03-06T02:49:19.283Z,4.22
2023-03-06T02:53:21.977Z,4.50
2023-03-06T02:57:23.763Z,5.53
2023-03-06T03:01:25.815Z,5.22
2023-03-06T03:05:27.731Z,4.40
2023-03-06T03:09:37.051Z,3.40
2023-03-06T03:13:39.167Z,4.05
2023-03-06T03:17:43.606Z,4.25
2023-03-06T03:21:45.480Z,4.22
2023-03-06T03:25:47.341Z,5.70
2023-03-06T03:29:50.094Z,5.63
2023-03-06T03:33:52.379Z,4.72
2023-03-06T03:37:56.926Z,5.63
2023-03-06T03:41:58.951Z,5.72
2023-03-06T03:46:00.912Z,4.90
2023-03-06T03:50:03.757Z,5.95
2023-03-06T03:54:06.840Z,5.68
2023-03-06T03:58:13.599Z,3.75
2023-03-06T04:02:15.978Z,4.40
2023-03-06T04:06:29.256Z,4.53
2023-03-06T04:10:31.827Z,4.20
2023-03-06T04:14:34.263Z,4.40
2023-03-06T04:18:36.965Z,3.85
2023-03-06T04:22:40.762Z,3.00
2023-03-06T04:26:43.241Z,2.70
2023-03-06T04:30:46.014Z,2.97
2023-03-06T04:34:48.504Z,4.10
2023-03-06T04:38:50.651Z,4.00
2023-03-06T04:42:52.855Z,3.65
2023-03-06T04:46:54.758Z,3.58
2023-03-06T04:50:56.988Z,2.90
2023-03-06T04:54:59.858Z,2.40
2023-03-06T04:59:04.267Z,3.22
2023-03-06T05:03:06.363Z,4.03
2023-03-06T05:07:08.607Z,2.80
2023-03-06T05:11:10.759Z,4.15
2023-03-06T05:15:14.351Z,3.63
2023-03-06T05:19:16.504Z,3.17
2023-03-06T05:23:18.418Z,2.85
2023-03-06T05:27:20.580Z,3.40
2023-03-06T05:31:22.905Z,2.80
2023-03-06T05:35:25.402Z,2.83
2023-03-06T05:39:28.543Z,3.33
2023-03-06T05:43:30.577Z,2.95
2023-03-06T05:47:33.289Z,2.78
2023-03-06T05:51:35.612Z,3.58
2023-03-06T05:55:37.941Z,3.65
2023-03-06T05:59:39.980Z,3.15
2023-03-06T06:03:42.831Z,2.72
2023-03-06T06:07:45.084Z,3.40
2023-03-06T06:11:47.088Z,2.80
2023-03-06T06:15:49.012Z,2.72
2023-03-06T06:19:51.227Z,2.28
2023-03-06T06:23:53.301Z,2.55
2023-03-06T06:27:56.844Z,2.78
2023-03-06T06:32:00.327Z,2.92
2023-03-06T06:36:02.403Z,2.40
2023-03-06T06:40:05.676Z,2.50
2023-03-06T06:44:10.778Z,2.80
2023-03-06T06:48:12.608Z,2.90
2023-03-06T06:52:14.417Z,3.17
2023-03-06T06:56:16.181Z,2.78
2023-03-06T07:00:18.860Z,3.58
2023-03-06T07:04:20.690Z,3.20
2023-03-06T07:08:22.540Z,3.40
2023-03-06T07:12:24.326Z,3.05
2023-03-06T07:16:26.149Z,3.40
2023-03-06T07:20:28.033Z,3.22
2023-03-06T07:24:29.810Z,2.92
2023-03-06T07:28:46.207Z,3.75
2023-03-06T07:32:55.569Z,3.35
2023-03-06T07:36:57.399Z,3.80
2023-03-06T07:40:59.160Z,4.10
2023-03-06T07:45:01.040Z,4.25
2023-03-06T07:49:02.834Z,4.50
2023-03-06T07:53:04.674Z,4.75
2023-03-06T07:57:06.494Z,4.03
2023-03-06T08:01:11.662Z,4.30
2023-03-06T08:05:15.726Z,4.10
2023-03-06T08:09:17.481Z,4.57
2023-03-06T08:13:19.238Z,3.55
2023-03-06T08:17:21.030Z,4.05
2023-03-06T08:21:27.854Z,4.40
2023-03-06T08:25:29.674Z,4.72
2023-03-06T08:29:32.348Z,5.63
2023-03-06T08:33:34.309Z,3.55
2023-03-06T08:37:36.132Z,5.15
2023-03-06T08:41:38.701Z,4.40
2023-03-06T08:45:40.485Z,3.95
2023-03-06T08:49:42.308Z,3.60
2023-03-06T08:53:44.734Z,4.75
2023-03-06T08:57:46.616Z,4.10
2023-03-06T09:01:48.385Z,4.30
2023-03-06T09:05:50.668Z,3.60
2023-03-06T09:09:56.076Z,4.32
2023-03-06T09:13:58.900Z,4.75
2023-03-06T09:18:00.710Z,4.95
2023-03-06T09:22:02.558Z,4.20
2023-03-06T09:26:04.452Z,4.30
2023-03-06T09:30:09.024Z,4.30
2023-03-06T09:34:10.798Z,4.38
2023-03-06T09:38:12.560Z,6.40
2023-03-06T09:42:18.575Z,6.43
2023-03-06T09:47:08.246Z,5.60
2023-03-06T09:51:17.202Z,6.72
2023-03-06T09:55:21.551Z,6.00
2023-03-06T09:59:25.853Z,6.38
2023-03-06T10:03:36.359Z,7.75
2023-03-06T10:07:46.859Z,5.70
2023-03-06T10:12:15.591Z,7.00
2023-03-06T10:16:23.599Z,7.05
2023-03-06T10:20:28.486Z,7.03
2023-03-06T10:24:54.239Z,7.97
2023-03-06T10:29:31.183Z,7.50
2023-03-06T10:33:55.486Z,8.88
2023-03-06T10:38:02.223Z,8.30
2023-03-06T10:42:03.975Z,8.10
2023-03-06T10:46:07.961Z,5.78
2023-03-06T10:50:25.029Z,8.27
2023-03-06T10:54:28.154Z,8.90
2023-03-06T10:58:32.527Z,7.57
2023-03-06T11:02:38.531Z,8.45
2023-03-06T11:06:40.525Z,7.50
2023-03-06T11:10:55.759Z,9.65
2023-03-06T11:15:06.980Z,8.35
2023-03-06T11:19:27.403Z,9.20
2023-03-06T11:23:37.974Z,7.78
2023-03-06T11:27:44.135Z,7.88
2023-03-06T11:32:14.734Z,7.25
2023-03-06T11:36:26.553Z,8.05
2023-03-06T11:40:37.112Z,7.82
2023-03-06T11:45:01.290Z,8.30
2023-03-06T11:49:22.875Z,7.57
2023-03-06T11:53:35.333Z,7.38
2023-03-06T11:57:50.243Z,8.07
2023-03-06T12:02:10.907Z,7.65
2023-03-06T12:06:27.741Z,7.40
2023-03-06T12:10:44.307Z,8.00
2023-03-06T12:14:52.753Z,9.15
2023-03-06T12:19:33.159Z,8.45
2023-03-06T12:23:53.269Z,7.53
2023-03-06T12:28:13.244Z,7.95
2023-03-06T12:32:29.481Z,8.18
2023-03-06T12:36:50.138Z,8.88
2023-03-06T12:41:05.685Z,7.82
2023-03-06T12:45:28.073Z,7.60
2023-03-06T12:49:34.558Z,8.18
2023-03-06T12:53:37.842Z,7.03
2023-03-06T12:57:40.474Z,7.57
2023-03-06T13:01:57.527Z,8.73
2023-03-06T13:06:30.915Z,8.43
2023-03-06T13:10:36.131Z,8.00
2023-03-06T13:14:42.335Z,7.40
2023-03-06T13:18:50.935Z,7.25
2023-03-06T13:22:52.750Z,7.28
2023-03-06T13:26:55.823Z,7.32
2023-03-06T13:30:57.797Z,8.10
2023-03-06T13:34:59.644Z,7.47
2023-03-06T13:39:02.240Z,8.73
2023-03-06T13:43:04.022Z,7.18
2023-03-06T13:47:29.378Z,8.18
2023-03-06T13:51:35.741Z,6.43
2023-03-06T13:56:08.820Z,7.23
2023-03-06T14:00:19.116Z,8.20
2023-03-06T14:04:53.564Z,7.55
2023-03-06T14:08:55.576Z,7.60
2023-03-06T14:13:04.245Z,7.43
2023-03-06T14:17:06.317Z,7.22
2023-03-06T14:21:13.463Z,7.10
2023-03-06T14:25:27.387Z,8.18
2023-03-06T14:29:30.567Z,7.78
2023-03-06T14:33:43.200Z,6.43
2023-03-06T14:37:48.448Z,7.22
2023-03-06T14:41:50.293Z,7.63
2023-03-06T14:46:06.100Z,7.32
2023-03-06T14:50:29.149Z,6.95
2023-03-06T14:54:32.383Z,7.50
2023-03-06T14:58:57.352Z,7.78
2023-03-06T15:02:59.871Z,7.07
2023-03-06T15:07:06.015Z,7.40
2023-03-06T15:11:07.821Z,7.68
2023-03-06T15:15:10.525Z,6.93
2023-03-06T15:19:20.804Z,7.15
2023-03-06T15:23:34.062Z,6.95
2023-03-06T15:27:35.890Z,7.55
2023-03-06T15:31:40.672Z,7.35
2023-03-06T15:36:02.057Z,7.63
2023-03-06T15:40:09.373Z,6.85
2023-03-06T15:48:18.446Z,7.13
2023-03-06T15:52:21.487Z,7.17
2023-03-06T15:56:32.714Z,6.95
2023-03-06T16:00:38.354Z,6.82
2023-03-06T16:04:40.231Z,6.47
2023-03-06T16:08:42.121Z,7.13
2023-03-06T16:12:48.380Z,7.82
2023-03-06T16:16:52.022Z,6.73
2023-03-06T16:20:53.833Z,7.30
2023-03-06T16:24:55.572Z,7.35
2023-03-06T16:28:57.553Z,6.32
2023-03-06T16:33:00.006Z,7.28
2023-03-06T16:37:01.836Z,7.60
2023-03-06T16:41:03.789Z,6.78
2023-03-06T16:45:05.950Z,6.88
2023-03-06T16:49:12.609Z,7.07
2023-03-06T16:53:15.412Z,6.63
2023-03-06T16:57:17.546Z,6.40
2023-03-06T17:01:20.154Z,7.10
2023-03-06T17:05:22.050Z,6.45
2023-03-06T17:09:23.846Z,7.38
2023-03-06T17:13:25.655Z,7.25
2023-03-06T17:17:27.652Z,6.60
2023-03-06T17:21:30.369Z,6.53
2023-03-06T17:25:34.477Z,9.10
2023-03-06T17:29:36.266Z,7.22
2023-03-06T17:33:38.042Z,7.28
2023-03-06T17:37:40.078Z,5.50
2023-03-06T17:41:42.106Z,4.35
2023-03-06T17:45:43.878Z,4.72
2023-03-06T17:49:45.646Z,4.10
2023-03-06T17:53:47.381Z,4.18
2023-03-06T17:57:51.983Z,4.75
2023-03-06T18:01:57.953Z,4.45
2023-03-06T18:06:04.696Z,4.63
2023-03-06T18:10:06.794Z,5.22
2023-03-06T18:14:09.614Z,3.75
2023-03-06T18:18:11.441Z,3.22
2023-03-06T18:22:13.284Z,5.32
2023-03-06T18:26:24.179Z,7.07
2023-03-06T18:30:26.464Z,6.90
2023-03-06T18:34:28.264Z,6.32
2023-03-06T18:38:30.363Z,9.13
2023-03-06T18:42:32.100Z,7.50
2023-03-06T18:46:37.116Z,5.00
2023-03-06T18:50:38.885Z,3.80
2023-03-06T18:54:40.779Z,5.55
2023-03-06T18:58:43.303Z,5.38
2023-03-06T19:02:45.101Z,6.07
2023-03-06T19:06:46.873Z,6.50
2023-03-06T19:10:50.030Z,4.70
2023-03-06T19:14:51.823Z,5.10
2023-03-06T19:18:57.546Z,4.20
2023-03-06T19:22:59.384Z,4.70
2023-03-06T19:27:01.119Z,4.25
2023-03-06T19:31:13.413Z,7.53
2023-03-06T19:35:15.328Z,5.00
2023-03-06T19:39:17.248Z,4.35
2023-03-06T19:43:19.061Z,5.63
2023-03-06T19:47:20.836Z,4.35
2023-03-06T19:51:23.096Z,4.55
2023-03-06T19:55:26.362Z,4.05
2023-03-06T19:59:28.160Z,3.25
2023-03-06T20:03:29.928Z,3.70
2023-03-06T20:07:31.689Z,3.75
2023-03-06T20:11:33.691Z,4.13
2023-03-06T20:15:36.727Z,5.45
2023-03-06T20:19:38.545Z,5.20
2023-03-06T20:23:41.056Z,4.75
2023-03-06T20:27:42.819Z,4.55
2023-03-06T20:31:44.674Z,5.28
2023-03-06T20:35:46.649Z,5.45
2023-03-06T20:39:48.624Z,4.72
2023-03-06T20:43:51.482Z,5.15
2023-03-06T20:47:56.192Z,4.90
2023-03-06T20:51:57.966Z,4.93
2023-03-06T20:55:59.740Z,3.85
2023-03-06T21:00:01.524Z,3.33
2023-03-06T21:04:04.596Z,3.65
2023-03-06T21:08:07.263Z,3.78
2023-03-06T21:12:09.044Z,3.88
2023-03-06T21:16:13.904Z,2.55
2023-03-06T21:20:15.871Z,2.20
2023-03-06T21:24:18.884Z,2.28
2023-03-06T21:28:21.460Z,2.40
2023-03-06T21:32:23.386Z,2.58
2023-03-06T21:36:26.159Z,3.25
2023-03-06T21:40:27.964Z,3.10
2023-03-06T21:44:29.721Z,3.30
2023-03-06T21:48:31.905Z,3.00
2023-03-06T21:52:33.715Z,3.30
2023-03-06T21:56:35.570Z,3.35
2023-03-06T22:00:38.389Z,3.35
2023-03-06T22:04:41.557Z,2.67
2023-03-06T22:08:43.566Z,2.65
2023-03-06T22:12:46.619Z,2.40
2023-03-06T22:16:50.462Z,2.42
2023-03-06T22:20:52.291Z,2.40
2023-03-06T22:24:54.283Z,2.42
2023-03-06T22:28:56.500Z,2.10
2023-03-06T22:32:58.489Z,2.53
2023-03-06T22:37:01.560Z,2.38
2023-03-06T22:41:04.822Z,2.20
2023-03-06T22:45:07.131Z,2.47
2023-03-06T22:49:11.498Z,2.25
2023-03-06T22:53:13.246Z,2.72
2023-03-06T22:57:15.004Z,2.47
2023-03-06T23:01:23.081Z,2.20
2023-03-06T23:05:28.454Z,2.40
2023-03-06T23:09:31.078Z,2.42
2023-03-06T23:13:51.722Z,2.60
2023-03-06T23:18:11.986Z,4.10
2023-03-06T23:22:32.291Z,3.75
2023-03-06T23:26:52.557Z,4.80
2023-03-06T23:30:54.378Z,4.65
2023-03-06T23:34:56.135Z,5.30
2023-03-06T23:38:58.192Z,3.50
2023-03-06T23:43:00.488Z,4.30
2023-03-06T23:47:02.248Z,4.30
2023-03-06T23:51:09.134Z,4.05
2023-03-06T23:55:11.131Z,4.05
2023-03-06T23:59:12.968Z,3.97
